sensor_id;sensor_type;location;lat;lon;timestamp;pressure;altitude;pressure_sealevel;temperature;humidity
56402;BME280;42299;35.160;26.100;2022-09-09T00:01:19;101207.13;;;20.97;69.04
56402;BME280;42299;35.160;26.100;2022-09-09T00:02:46;101214.31;;;20.95;69.02
56402;BME280;42299;35.160;26.100;2022-09-09T00:04:12;101198.31;;;20.90;69.60
56402;BME280;42299;35.160;26.100;2022-09-09T00:05:37;101203.69;;;20.89;69.61
56402;BME280;42299;35.160;26.100;2022-09-09T00:07:04;101202.81;;;20.88;69.73
56402;BME280;42299;35.160;26.100;2022-09-09T00:08:28;101205.47;;;20.90;69.49
56402;BME280;42299;35.160;26.100;2022-09-09T00:09:57;101202.75;;;20.91;69.24
56402;BME280;42299;35.160;26.100;2022-09-09T00:11:24;101209.03;;;20.92;69.70
56402;BME280;42299;35.160;26.100;2022-09-09T00:12:49;101208.13;;;20.91;69.67
56402;BME280;42299;35.160;26.100;2022-09-09T00:14:13;101209.91;;;20.92;69.58
56402;BME280;42299;35.160;26.100;2022-09-09T00:15:40;101211.81;;;20.86;69.26
56402;BME280;42299;35.160;26.100;2022-09-09T00:17:02;101202.09;;;20.80;69.28
56402;BME280;42299;35.160;26.100;2022-09-09T00:18:29;101204.78;;;20.80;70.02
56402;BME280;42299;35.160;26.100;2022-09-09T00:19:56;101213.66;;;20.84;69.84
56402;BME280;42299;35.160;26.100;2022-09-09T00:21:22;101205.63;;;20.81;69.93
56402;BME280;42299;35.160;26.100;2022-09-09T00:22:47;101200.38;;;20.76;69.52
56402;BME280;42299;35.160;26.100;2022-09-09T00:24:16;101208.50;;;20.73;70.11
56402;BME280;42299;35.160;26.100;2022-09-09T00:25:42;101199.53;;;20.74;70.09
56402;BME280;42299;35.160;26.100;2022-09-09T00:27:11;101200.38;;;20.76;69.60
56402;BME280;42299;35.160;26.100;2022-09-09T00:28:36;101186.94;;;20.76;69.92
56402;BME280;42299;35.160;26.100;2022-09-09T00:30:02;101194.13;;;20.76;70.11
56402;BME280;42299;35.160;26.100;2022-09-09T00:31:25;101195.03;;;20.75;69.89
56402;BME280;42299;35.160;26.100;2022-09-09T00:32:48;101198.66;;;20.72;70.01
56402;BME280;42299;35.160;26.100;2022-09-09T00:34:13;101198.66;;;20.72;69.74
56402;BME280;42299;35.160;26.100;2022-09-09T00:35:35;101195.09;;;20.72;70.14
56402;BME280;42299;35.160;26.100;2022-09-09T00:36:58;101202.34;;;20.66;70.37
56402;BME280;42299;35.160;26.100;2022-09-09T00:38:21;101203.28;;;20.64;70.11
56402;BME280;42299;35.160;26.100;2022-09-09T00:39:46;101189.91;;;20.62;70.02
56402;BME280;42299;35.160;26.100;2022-09-09T00:41:09;101200.69;;;20.61;70.34
56402;BME280;42299;35.160;26.100;2022-09-09T00:42:36;101200.69;;;20.61;70.55
56402;BME280;42299;35.160;26.100;2022-09-09T00:44:00;101200.84;;;20.52;70.50
56402;BME280;42299;35.160;26.100;2022-09-09T00:45:30;101200.97;;;20.44;70.94
56402;BME280;42299;35.160;26.100;2022-09-09T00:46:59;101201.03;;;20.41;71.26
56402;BME280;42299;35.160;26.100;2022-09-09T00:48:26;101199.19;;;20.43;70.83
56402;BME280;42299;35.160;26.100;2022-09-09T00:49:58;101197.38;;;20.45;71.08
56402;BME280;42299;35.160;26.100;2022-09-09T00:51:23;101197.38;;;20.45;70.90
56402;BME280;42299;35.160;26.100;2022-09-09T00:52:48;101200.06;;;20.45;70.73
56402;BME280;42299;35.160;26.100;2022-09-09T00:54:17;101200.94;;;20.47;70.70
56402;BME280;42299;35.160;26.100;2022-09-09T00:55:44;101199.19;;;20.45;70.44
56402;BME280;42299;35.160;26.100;2022-09-09T00:57:12;101192.06;;;20.42;70.19
56402;BME280;42299;35.160;26.100;2022-09-09T00:58:34;101197.41;;;20.42;70.58
56402;BME280;42299;35.160;26.100;2022-09-09T00:59:58;101199.25;;;20.40;70.10
56402;BME280;42299;35.160;26.100;2022-09-09T01:01:21;101193.91;;;20.40;70.47
56402;BME280;42299;35.160;26.100;2022-09-09T01:02:46;101201.97;;;20.39;70.28
56402;BME280;42299;35.160;26.100;2022-09-09T01:04:12;101196.63;;;20.37;70.15
56402;BME280;42299;35.160;26.100;2022-09-09T01:05:39;101198.41;;;20.37;70.71
56402;BME280;42299;35.160;26.100;2022-09-09T01:07:07;101196.63;;;20.37;70.08
56402;BME280;42299;35.160;26.100;2022-09-09T01:08:41;101198.41;;;20.38;70.33
56402;BME280;42299;35.160;26.100;2022-09-09T01:10:06;101201.09;;;20.38;69.99
56402;BME280;42299;35.160;26.100;2022-09-09T01:11:36;101200.19;;;20.38;69.92
56402;BME280;42299;35.160;26.100;2022-09-09T01:13:00;101205.56;;;20.36;69.84
56402;BME280;42299;35.160;26.100;2022-09-09T01:14:30;101209.13;;;20.38;70.16
56402;BME280;42299;35.160;26.100;2022-09-09T01:15:53;101207.34;;;20.37;69.96
56402;BME280;42299;35.160;26.100;2022-09-09T01:17:17;101208.31;;;20.35;69.97
56402;BME280;42299;35.160;26.100;2022-09-09T01:18:45;101210.09;;;20.34;69.95
56402;BME280;42299;35.160;26.100;2022-09-09T01:20:10;101213.69;;;20.33;69.96
56402;BME280;42299;35.160;26.100;2022-09-09T01:21:43;101213.69;;;20.33;69.99
56402;BME280;42299;35.160;26.100;2022-09-09T01:23:18;101211.00;;;20.35;70.10
56402;BME280;42299;35.160;26.100;2022-09-09T01:27:02;101215.50;;;20.29;69.61
56402;BME280;42299;35.160;26.100;2022-09-09T01:28:26;101216.41;;;20.28;69.72
56402;BME280;42299;35.160;26.100;2022-09-09T01:29:55;101217.34;;;20.27;69.65
56402;BME280;42299;35.160;26.100;2022-09-09T01:31:19;101212.00;;;20.26;70.01
56402;BME280;42299;35.160;26.100;2022-09-09T01:32:42;101213.81;;;20.24;69.86
56402;BME280;42299;35.160;26.100;2022-09-09T01:34:10;101214.72;;;20.23;69.91
56402;BME280;42299;35.160;26.100;2022-09-09T01:35:36;101214.78;;;20.18;70.44
56402;BME280;42299;35.160;26.100;2022-09-09T01:37:01;101222.81;;;20.20;70.59
56402;BME280;42299;35.160;26.100;2022-09-09T01:38:25;101219.28;;;20.18;70.57
56402;BME280;42299;35.160;26.100;2022-09-09T01:39:47;101214.81;;;20.17;70.33
56402;BME280;42299;35.160;26.100;2022-09-09T01:41:11;101221.03;;;20.19;70.47
56402;BME280;42299;35.160;26.100;2022-09-09T01:42:43;101230.84;;;20.21;70.57
56402;BME280;42299;35.160;26.100;2022-09-09T01:44:05;101225.41;;;20.24;70.62
56402;BME280;42299;35.160;26.100;2022-09-09T01:45:28;101224.53;;;20.24;70.58
56402;BME280;42299;35.160;26.100;2022-09-09T01:46:51;101231.69;;;20.23;70.52
56402;BME280;42299;35.160;26.100;2022-09-09T01:48:15;101222.81;;;20.20;70.67
56402;BME280;42299;35.160;26.100;2022-09-09T01:49:46;101224.72;;;20.12;71.11
56402;BME280;42299;35.160;26.100;2022-09-09T01:51:15;101227.50;;;20.06;71.05
56402;BME280;42299;35.160;26.100;2022-09-09T01:52:38;101224.84;;;20.04;71.20
56402;BME280;42299;35.160;26.100;2022-09-09T01:54:03;101226.66;;;20.02;71.19
56402;BME280;42299;35.160;26.100;2022-09-09T01:55:28;101228.41;;;20.05;71.18
56402;BME280;42299;35.160;26.100;2022-09-09T01:57:00;101220.38;;;20.06;71.29
56402;BME280;42299;35.160;26.100;2022-09-09T01:58:28;101213.19;;;20.08;71.29
56402;BME280;42299;35.160;26.100;2022-09-09T02:00:04;101233.69;;;20.09;71.11
56402;BME280;42299;35.160;26.100;2022-09-09T02:01:39;101229.31;;;20.05;70.95
56402;BME280;42299;35.160;26.100;2022-09-09T02:03:09;101229.34;;;20.02;71.15
56402;BME280;42299;35.160;26.100;2022-09-09T02:04:52;101228.50;;;20.02;70.92
56402;BME280;42299;35.160;26.100;2022-09-09T02:06:21;101224.94;;;20.00;71.29
56402;BME280;42299;35.160;26.100;2022-09-09T02:07:46;101224.06;;;19.98;71.15
56402;BME280;42299;35.160;26.100;2022-09-09T02:09:38;101228.53;;;19.97;71.20
56402;BME280;42299;35.160;26.100;2022-09-09T02:11:03;101225.91;;;19.94;71.48
56402;BME280;42299;35.160;26.100;2022-09-09T02:12:33;101218.88;;;19.87;71.48
56402;BME280;42299;35.160;26.100;2022-09-09T02:14:00;101214.50;;;19.81;71.69
56402;BME280;42299;35.160;26.100;2022-09-09T02:15:22;101213.75;;;19.72;71.58
56402;BME280;42299;35.160;26.100;2022-09-09T02:16:47;101214.66;;;19.71;71.86
56402;BME280;42299;35.160;26.100;2022-09-09T02:18:10;101221.75;;;19.73;71.70
56402;BME280;42299;35.160;26.100;2022-09-09T02:19:35;101213.72;;;19.75;71.88
56402;BME280;42299;35.160;26.100;2022-09-09T02:21:04;101214.53;;;19.80;72.02
56402;BME280;42299;35.160;26.100;2022-09-09T02:22:27;101214.53;;;19.80;71.49
56402;BME280;42299;35.160;26.100;2022-09-09T02:23:51;101214.53;;;19.80;71.62
56402;BME280;42299;35.160;26.100;2022-09-09T02:25:16;101215.41;;;19.80;71.58
56402;BME280;42299;35.160;26.100;2022-09-09T02:26:39;101218.13;;;19.77;71.48
56402;BME280;42299;35.160;26.100;2022-09-09T02:28:03;101213.72;;;19.75;71.67
56402;BME280;42299;35.160;26.100;2022-09-09T02:29:28;101218.19;;;19.74;71.75
56402;BME280;42299;35.160;26.100;2022-09-09T02:30:51;101213.66;;;19.76;71.11
56402;BME280;42299;35.160;26.100;2022-09-09T02:32:20;101211.88;;;19.77;71.40
56402;BME280;42299;35.160;26.100;2022-09-09T02:33:45;101211.91;;;19.75;71.19
56402;BME280;42299;35.160;26.100;2022-09-09T02:35:10;101211.91;;;19.75;71.34
56402;BME280;42299;35.160;26.100;2022-09-09T02:36:34;101204.84;;;19.70;71.41
56402;BME280;42299;35.160;26.100;2022-09-09T02:38:01;101207.56;;;19.67;71.31
56402;BME280;42299;35.160;26.100;2022-09-09T02:39:24;101204.03;;;19.63;71.35
56402;BME280;42299;35.160;26.100;2022-09-09T02:40:46;101204.09;;;19.62;71.57
56402;BME280;42299;35.160;26.100;2022-09-09T02:42:10;101198.69;;;19.63;71.21
56402;BME280;42299;35.160;26.100;2022-09-09T02:43:36;101203.16;;;19.63;71.21
56402;BME280;42299;35.160;26.100;2022-09-09T02:45:05;101204.03;;;19.63;71.55
56402;BME280;42299;35.160;26.100;2022-09-09T02:46:30;101204.91;;;19.64;71.46
56402;BME280;42299;35.160;26.100;2022-09-09T02:47:59;101211.19;;;19.63;71.08
56402;BME280;42299;35.160;26.100;2022-09-09T02:49:28;101207.66;;;19.62;71.18
56402;BME280;42299;35.160;26.100;2022-09-09T02:50:54;101213.00;;;19.62;70.92
56402;BME280;42299;35.160;26.100;2022-09-09T02:52:21;101213.03;;;19.59;71.36
56402;BME280;42299;35.160;26.100;2022-09-09T02:53:47;101210.44;;;19.53;71.42
56402;BME280;42299;35.160;26.100;2022-09-09T02:55:12;101208.72;;;19.49;71.56
56402;BME280;42299;35.160;26.100;2022-09-09T02:56:42;101216.84;;;19.38;72.03
56402;BME280;42299;35.160;26.100;2022-09-09T02:58:08;101220.50;;;19.31;72.42
56402;BME280;42299;35.160;26.100;2022-09-09T02:59:32;101216.94;;;19.31;72.58
56402;BME280;42299;35.160;26.100;2022-09-09T03:00:55;101214.22;;;19.35;72.50
56402;BME280;42299;35.160;26.100;2022-09-09T03:02:19;101222.19;;;19.40;71.78
56402;BME280;42299;35.160;26.100;2022-09-09T03:03:47;101223.97;;;19.39;71.70
56402;BME280;42299;35.160;26.100;2022-09-09T03:05:10;101221.28;;;19.41;71.63
56402;BME280;42299;35.160;26.100;2022-09-09T03:06:34;101224.81;;;19.44;71.84
56402;BME280;42299;35.160;26.100;2022-09-09T03:08:07;101223.91;;;19.47;71.16
56402;BME280;42299;35.160;26.100;2022-09-09T03:09:30;101219.44;;;19.49;71.36
56402;BME280;42299;35.160;26.100;2022-09-09T03:10:51;101223.91;;;19.47;71.37
56402;BME280;42299;35.160;26.100;2022-09-09T03:12:14;101225.69;;;19.45;71.44
56402;BME280;42299;35.160;26.100;2022-09-09T03:13:36;101223.91;;;19.44;71.24
56402;BME280;42299;35.160;26.100;2022-09-09T03:14:59;101232.91;;;19.40;71.27
56402;BME280;42299;35.160;26.100;2022-09-09T03:16:23;101231.09;;;19.42;71.33
56402;BME280;42299;35.160;26.100;2022-09-09T03:17:47;101230.16;;;19.43;71.65
56402;BME280;42299;35.160;26.100;2022-09-09T03:19:08;101231.97;;;19.47;71.73
56402;BME280;42299;35.160;26.100;2022-09-09T03:20:30;101235.50;;;19.49;71.80
56402;BME280;42299;35.160;26.100;2022-09-09T03:21:52;101237.25;;;19.52;71.80
56402;BME280;42299;35.160;26.100;2022-09-09T03:23:14;101222.94;;;19.54;72.04
56402;BME280;42299;35.160;26.100;2022-09-09T03:24:36;101218.41;;;19.58;72.00
56402;BME280;42299;35.160;26.100;2022-09-09T03:25:59;101221.03;;;19.62;72.03
56402;BME280;42299;35.160;26.100;2022-09-09T03:27:32;101216.50;;;19.67;72.08
56402;BME280;42299;35.160;26.100;2022-09-09T03:28:54;101226.25;;;19.71;72.12
56402;BME280;42299;35.160;26.100;2022-09-09T03:30:17;101233.38;;;19.74;71.86
56402;BME280;42299;35.160;26.100;2022-09-09T03:31:42;101225.31;;;19.75;71.80
56402;BME280;42299;35.160;26.100;2022-09-09T03:33:03;101231.56;;;19.74;71.65
56402;BME280;42299;35.160;26.100;2022-09-09T03:34:27;101232.47;;;19.73;72.09
56402;BME280;42299;35.160;26.100;2022-09-09T03:35:48;101226.16;;;19.76;71.75
56402;BME280;42299;35.160;26.100;2022-09-09T03:37:14;101228.81;;;19.80;72.16
56402;BME280;42299;35.160;26.100;2022-09-09T03:38:36;101225.16;;;19.84;71.83
56402;BME280;42299;35.160;26.100;2022-09-09T03:39:57;101231.31;;;19.89;72.03
56402;BME280;42299;35.160;26.100;2022-09-09T03:41:20;101236.66;;;19.94;72.05
56402;BME280;42299;35.160;26.100;2022-09-09T03:42:41;101235.69;;;19.97;71.66
56402;BME280;42299;35.160;26.100;2022-09-09T03:44:03;101226.72;;;19.99;72.08
56402;BME280;42299;35.160;26.100;2022-09-09T03:45:29;101238.25;;;20.04;71.79
56402;BME280;42299;35.160;26.100;2022-09-09T03:46:54;101223.94;;;20.07;71.67
56402;BME280;42299;35.160;26.100;2022-09-09T03:48:17;101243.50;;;20.10;72.04
56402;BME280;42299;35.160;26.100;2022-09-09T03:49:38;101242.59;;;20.13;71.97
56402;BME280;42299;35.160;26.100;2022-09-09T03:51:00;101237.16;;;20.17;71.96
56402;BME280;42299;35.160;26.100;2022-09-09T03:52:26;101238.91;;;20.20;71.79
56402;BME280;42299;35.160;26.100;2022-09-09T03:53:47;101237.06;;;20.22;72.04
56402;BME280;42299;35.160;26.100;2022-09-09T03:55:10;101237.03;;;20.23;71.95
56402;BME280;42299;35.160;26.100;2022-09-09T03:56:32;101243.19;;;20.30;71.89
56402;BME280;42299;35.160;26.100;2022-09-09T03:57:54;101243.19;;;20.35;71.78
56402;BME280;42299;35.160;26.100;2022-09-09T03:59:16;101240.44;;;20.38;72.19
56402;BME280;42299;35.160;26.100;2022-09-09T04:00:39;101244.03;;;20.35;71.71
56402;BME280;42299;35.160;26.100;2022-09-09T04:02:04;101243.19;;;20.35;71.73
56402;BME280;42299;35.160;26.100;2022-09-09T04:03:26;101244.91;;;20.36;72.00
56402;BME280;42299;35.160;26.100;2022-09-09T04:04:47;101242.22;;;20.36;71.85
56402;BME280;42299;35.160;26.100;2022-09-09T04:06:10;101238.66;;;20.37;72.48
56402;BME280;42299;35.160;26.100;2022-09-09T04:07:35;101244.88;;;20.40;72.30
56402;BME280;42299;35.160;26.100;2022-09-09T04:08:57;101234.97;;;20.42;72.04
56402;BME280;42299;35.160;26.100;2022-09-09T04:10:20;101235.81;;;20.46;72.21
56402;BME280;42299;35.160;26.100;2022-09-09T04:11:43;101235.72;;;20.50;72.62
56402;BME280;42299;35.160;26.100;2022-09-09T04:13:06;101237.47;;;20.54;72.72
56402;BME280;42299;35.160;26.100;2022-09-09T04:14:28;101233.81;;;20.57;72.83
56402;BME280;42299;35.160;26.100;2022-09-09T04:15:51;101238.19;;;20.62;72.94
56402;BME280;42299;35.160;26.100;2022-09-09T04:17:14;101247.00;;;20.71;73.08
56402;BME280;42299;35.160;26.100;2022-09-09T04:18:37;101244.16;;;20.80;72.91
56402;BME280;42299;35.160;26.100;2022-09-09T04:19:59;101240.34;;;20.91;73.01
56402;BME280;42299;35.160;26.100;2022-09-09T04:21:21;101245.50;;;21.02;72.34
56402;BME280;42299;35.160;26.100;2022-09-09T04:22:43;101239.03;;;21.12;72.58
56402;BME280;42299;35.160;26.100;2022-09-09T04:24:05;101236.25;;;21.20;72.57
56402;BME280;42299;35.160;26.100;2022-09-09T04:25:26;101243.28;;;21.25;72.27
56402;BME280;42299;35.160;26.100;2022-09-09T04:26:49;101243.22;;;21.27;72.20
56402;BME280;42299;35.160;26.100;2022-09-09T04:28:11;101245.88;;;21.28;72.10
56402;BME280;42299;35.160;26.100;2022-09-09T04:29:32;101245.88;;;21.28;71.96
56402;BME280;42299;35.160;26.100;2022-09-09T04:30:55;101244.06;;;21.30;71.73
56402;BME280;42299;35.160;26.100;2022-09-09T04:32:19;101244.06;;;21.30;71.87
56402;BME280;42299;35.160;26.100;2022-09-09T04:33:41;101235.91;;;21.33;72.07
56402;BME280;42299;35.160;26.100;2022-09-09T04:35:04;101246.56;;;21.39;71.91
56402;BME280;42299;35.160;26.100;2022-09-09T04:36:27;101241.06;;;21.45;71.68
56402;BME280;42299;35.160;26.100;2022-09-09T04:37:53;101249.00;;;21.52;71.66
56402;BME280;42299;35.160;26.100;2022-09-09T04:39:15;101246.22;;;21.55;71.40
56402;BME280;42299;35.160;26.100;2022-09-09T04:40:38;101246.00;;;21.65;71.64
56402;BME280;42299;35.160;26.100;2022-09-09T04:42:03;101242.94;;;21.80;71.57
56402;BME280;42299;35.160;26.100;2022-09-09T04:43:25;101237.25;;;21.94;71.32
56402;BME280;42299;35.160;26.100;2022-09-09T04:44:51;101249.50;;;22.09;71.04
56402;BME280;42299;35.160;26.100;2022-09-09T04:46:14;101250.25;;;22.14;70.63
56402;BME280;42299;35.160;26.100;2022-09-09T04:47:37;101239.28;;;22.23;70.83
56402;BME280;42299;35.160;26.100;2022-09-09T04:48:59;101242.47;;;22.39;70.80
56402;BME280;42299;35.160;26.100;2022-09-09T04:50:24;101240.44;;;22.48;70.16
56402;BME280;42299;35.160;26.100;2022-09-09T04:51:52;101246.44;;;22.58;69.94
56402;BME280;42299;35.160;26.100;2022-09-09T04:53:14;101242.47;;;22.74;70.00
56402;BME280;42299;35.160;26.100;2022-09-09T04:54:35;101244.81;;;22.86;70.07
56402;BME280;42299;35.160;26.100;2022-09-09T04:56:02;101240.16;;;22.93;69.81
56402;BME280;42299;35.160;26.100;2022-09-09T04:57:28;101249.13;;;22.93;69.63
56402;BME280;42299;35.160;26.100;2022-09-09T04:58:52;101245.47;;;22.96;69.95
56402;BME280;42299;35.160;26.100;2022-09-09T05:00:17;101244.25;;;23.08;69.65
56402;BME280;42299;35.160;26.100;2022-09-09T05:01:39;101245.63;;;23.22;69.64
56402;BME280;42299;35.160;26.100;2022-09-09T05:03:03;101252.34;;;23.37;69.62
56402;BME280;42299;35.160;26.100;2022-09-09T05:04:25;101240.31;;;23.50;69.47
56402;BME280;42299;35.160;26.100;2022-09-09T05:05:47;101240.00;;;23.61;69.23
56402;BME280;42299;35.160;26.100;2022-09-09T05:07:08;101246.06;;;23.69;69.33
56402;BME280;42299;35.160;26.100;2022-09-09T05:08:31;101241.19;;;23.80;69.49
56402;BME280;42299;35.160;26.100;2022-09-09T05:09:52;101244.34;;;23.94;69.15
56402;BME280;42299;35.160;26.100;2022-09-09T05:11:18;101248.31;;;24.10;69.38
56402;BME280;42299;35.160;26.100;2022-09-09T05:12:41;101248.56;;;24.31;69.14
56402;BME280;42299;35.160;26.100;2022-09-09T05:14:02;101244.44;;;24.47;69.60
56402;BME280;42299;35.160;26.100;2022-09-09T05:15:26;101239.38;;;24.62;69.34
56402;BME280;42299;35.160;26.100;2022-09-09T05:16:48;101239.72;;;24.78;69.01
56402;BME280;42299;35.160;26.100;2022-09-09T05:18:12;101231.88;;;24.97;68.86
56402;BME280;42299;35.160;26.100;2022-09-09T05:19:33;101233.88;;;25.15;67.71
56402;BME280;42299;35.160;26.100;2022-09-09T05:20:58;101231.47;;;25.32;68.26
56402;BME280;42299;35.160;26.100;2022-09-09T05:22:21;101228.97;;;25.50;67.30
56402;BME280;42299;35.160;26.100;2022-09-09T05:23:46;101229.16;;;25.68;67.48
56402;BME280;42299;35.160;26.100;2022-09-09T05:25:07;101229.41;;;25.86;66.81
56402;BME280;42299;35.160;26.100;2022-09-09T05:26:30;101231.41;;;26.02;66.77
56402;BME280;42299;35.160;26.100;2022-09-09T05:27:53;101235.38;;;26.15;67.01
56402;BME280;42299;35.160;26.100;2022-09-09T05:29:15;101227.59;;;26.30;66.57
56402;BME280;42299;35.160;26.100;2022-09-09T05:30:39;101226.09;;;26.44;65.75
56402;BME280;42299;35.160;26.100;2022-09-09T05:32:00;101231.75;;;26.58;65.85
56402;BME280;42299;35.160;26.100;2022-09-09T05:33:24;101222.09;;;26.73;66.04
56402;BME280;42299;35.160;26.100;2022-09-09T05:34:47;101225.06;;;26.87;64.55
56402;BME280;42299;35.160;26.100;2022-09-09T05:36:11;101227.22;;;27.01;64.46
56402;BME280;42299;35.160;26.100;2022-09-09T05:37:34;101226.66;;;27.13;63.96
56402;BME280;42299;35.160;26.100;2022-09-09T05:38:56;101223.47;;;27.24;62.79
56402;BME280;42299;35.160;26.100;2022-09-09T05:40:21;101228.31;;;27.36;61.90
56402;BME280;42299;35.160;26.100;2022-09-09T05:41:44;101225.91;;;27.49;62.24
56402;BME280;42299;35.160;26.100;2022-09-09T05:43:07;101221.81;;;27.59;60.51
56402;BME280;42299;35.160;26.100;2022-09-09T05:44:30;101222.09;;;27.71;61.15
56402;BME280;42299;35.160;26.100;2022-09-09T05:45:59;101221.50;;;27.84;60.26
56402;BME280;42299;35.160;26.100;2022-09-09T05:47:21;101229.88;;;27.98;61.53
56402;BME280;42299;35.160;26.100;2022-09-09T05:48:46;101231.81;;;28.14;61.02
56402;BME280;42299;35.160;26.100;2022-09-09T05:50:09;101232.84;;;28.29;60.65
56402;BME280;42299;35.160;26.100;2022-09-09T05:51:31;101227.59;;;28.43;59.57
56402;BME280;42299;35.160;26.100;2022-09-09T05:53:02;101231.28;;;28.60;59.66
56402;BME280;42299;35.160;26.100;2022-09-09T05:54:25;101229.66;;;28.74;59.42
56402;BME280;42299;35.160;26.100;2022-09-09T05:55:48;101230.84;;;28.86;58.20
56402;BME280;42299;35.160;26.100;2022-09-09T05:57:10;101232.09;;;28.96;57.29
56402;BME280;42299;35.160;26.100;2022-09-09T05:58:32;101235.31;;;29.04;56.99
56402;BME280;42299;35.160;26.100;2022-09-09T05:59:53;101226.66;;;28.96;56.93
56402;BME280;42299;35.160;26.100;2022-09-09T06:01:15;101237.38;;;28.65;56.50
56402;BME280;42299;35.160;26.100;2022-09-09T06:02:38;101234.13;;;28.22;57.46
56402;BME280;42299;35.160;26.100;2022-09-09T06:04:05;101235.47;;;27.95;58.16
56402;BME280;42299;35.160;26.100;2022-09-09T06:05:27;101233.47;;;27.98;57.57
56402;BME280;42299;35.160;26.100;2022-09-09T06:06:50;101230.00;;;28.13;57.23
56402;BME280;42299;35.160;26.100;2022-09-09T06:08:15;101236.06;;;28.37;56.69
56402;BME280;42299;35.160;26.100;2022-09-09T06:09:37;101241.22;;;28.61;56.85
56402;BME280;42299;35.160;26.100;2022-09-09T06:11:01;101240.84;;;28.85;56.35
56402;BME280;42299;35.160;26.100;2022-09-09T06:12:23;101241.22;;;29.12;55.55
56402;BME280;42299;35.160;26.100;2022-09-09T06:13:45;101239.31;;;29.30;55.35
56402;BME280;42299;35.160;26.100;2022-09-09T06:15:08;101241.06;;;29.48;53.31
56402;BME280;42299;35.160;26.100;2022-09-09T06:16:31;101238.72;;;29.58;54.11
56402;BME280;42299;35.160;26.100;2022-09-09T06:17:54;101242.78;;;29.66;54.26
56402;BME280;42299;35.160;26.100;2022-09-09T06:19:18;101243.03;;;29.78;53.68
56402;BME280;42299;35.160;26.100;2022-09-09T06:20:42;101240.84;;;29.84;52.80
56402;BME280;42299;35.160;26.100;2022-09-09T06:22:04;101243.59;;;29.84;52.28
56402;BME280;42299;35.160;26.100;2022-09-09T06:23:30;101239.00;;;29.85;53.16
56402;BME280;42299;35.160;26.100;2022-09-09T06:24:52;101239.69;;;29.88;52.46
56402;BME280;42299;35.160;26.100;2022-09-09T06:26:15;101240.47;;;29.92;52.90
56402;BME280;42299;35.160;26.100;2022-09-09T06:27:39;101249.75;;;30.03;53.12
56402;BME280;42299;35.160;26.100;2022-09-09T06:29:03;101246.59;;;30.11;51.98
56402;BME280;42299;35.160;26.100;2022-09-09T06:30:24;101246.69;;;30.09;51.88
56402;BME280;42299;35.160;26.100;2022-09-09T06:31:47;101244.63;;;30.13;52.59
56402;BME280;42299;35.160;26.100;2022-09-09T06:33:14;101238.59;;;30.24;52.58
56402;BME280;42299;35.160;26.100;2022-09-09T06:34:38;101246.31;;;30.31;51.74
56402;BME280;42299;35.160;26.100;2022-09-09T06:36:00;101247.72;;;30.38;51.83
56402;BME280;42299;35.160;26.100;2022-09-09T06:37:21;101246.13;;;30.50;52.64
56402;BME280;42299;35.160;26.100;2022-09-09T06:38:45;101249.16;;;30.60;51.63
56402;BME280;42299;35.160;26.100;2022-09-09T06:40:09;101252.03;;;30.72;50.73
56402;BME280;42299;35.160;26.100;2022-09-09T06:41:31;101251.78;;;30.77;50.33
56402;BME280;42299;35.160;26.100;2022-09-09T06:42:59;101260.03;;;30.75;49.64
56402;BME280;42299;35.160;26.100;2022-09-09T06:44:32;101248.84;;;30.80;50.60
56402;BME280;42299;35.160;26.100;2022-09-09T06:45:56;101248.59;;;30.84;50.24
56402;BME280;42299;35.160;26.100;2022-09-09T06:47:17;101241.16;;;30.86;49.80
56402;BME280;42299;35.160;26.100;2022-09-09T06:48:40;101244.50;;;30.92;49.42
56402;BME280;42299;35.160;26.100;2022-09-09T06:50:07;101248.72;;;30.97;49.90
56402;BME280;42299;35.160;26.100;2022-09-09T06:51:32;101246.31;;;31.07;49.19
56402;BME280;42299;35.160;26.100;2022-09-09T06:52:57;101251.19;;;31.16;49.48
56402;BME280;42299;35.160;26.100;2022-09-09T06:54:18;101258.78;;;31.25;50.00
56402;BME280;42299;35.160;26.100;2022-09-09T06:55:42;101261.63;;;31.38;49.14
56402;BME280;42299;35.160;26.100;2022-09-09T06:57:06;101257.25;;;31.49;49.64
56402;BME280;42299;35.160;26.100;2022-09-09T06:58:29;101256.09;;;31.53;47.45
56402;BME280;42299;35.160;26.100;2022-09-09T06:59:53;101264.38;;;31.52;48.64
56402;BME280;42299;35.160;26.100;2022-09-09T07:01:16;101254.81;;;31.59;49.07
56402;BME280;42299;35.160;26.100;2022-09-09T07:02:38;101258.06;;;31.65;47.80
56402;BME280;42299;35.160;26.100;2022-09-09T07:04:03;101260.78;;;31.65;48.27
56402;BME280;42299;35.160;26.100;2022-09-09T07:05:30;101259.63;;;31.70;48.12
56402;BME280;42299;35.160;26.100;2022-09-09T07:06:52;101263.03;;;31.73;48.01
56402;BME280;42299;35.160;26.100;2022-09-09T07:08:18;101267.13;;;31.80;48.12
56402;BME280;42299;35.160;26.100;2022-09-09T07:09:39;101259.72;;;31.82;47.50
56402;BME280;42299;35.160;26.100;2022-09-09T07:11:02;101258.84;;;31.82;47.47
56402;BME280;42299;35.160;26.100;2022-09-09T07:12:28;101261.56;;;31.82;47.88
56402;BME280;42299;35.160;26.100;2022-09-09T07:13:53;101259.31;;;31.88;47.58
56402;BME280;42299;35.160;26.100;2022-09-09T07:15:15;101266.41;;;31.91;47.68
56402;BME280;42299;35.160;26.100;2022-09-09T07:16:39;101259.78;;;31.95;47.15
56402;BME280;42299;35.160;26.100;2022-09-09T07:18:02;101257.25;;;31.92;46.38
56402;BME280;42299;35.160;26.100;2022-09-09T07:19:25;101269.53;;;31.85;46.54